createdAt,value
2018-07-10T00:00:53.143Z,17.64
2018-07-10T00:01:53.286Z,17.69
2018-07-10T00:02:53.093Z,17.70
2018-07-10T00:03:53.195Z,17.70
2018-07-10T00:04:53.051Z,17.69
2018-07-10T00:05:53.215Z,17.79
2018-07-10T00:06:53.010Z,17.76
2018-07-10T00:07:53.125Z,17.78
2018-07-10T00:08:52.967Z,17.79
2018-07-10T00:09:53.138Z,17.76
2018-07-10T00:10:52.928Z,17.79
2018-07-10T00:11:53.051Z,17.81
2018-07-10T00:12:52.885Z,17.78
2018-07-10T00:13:53.063Z,17.81
2018-07-10T00:14:52.838Z,17.66
2018-07-10T00:15:52.871Z,17.74
2018-07-10T00:16:52.794Z,17.63
2018-07-10T00:17:52.887Z,17.57
2018-07-10T00:18:52.748Z,17.63
2018-07-10T00:19:52.799Z,17.64
2018-07-10T00:20:52.768Z,17.57
2018-07-10T00:21:52.712Z,17.59
2018-07-10T00:22:52.667Z,17.55
2018-07-10T00:23:52.726Z,17.55
2018-07-10T00:24:52.623Z,17.47
2018-07-10T00:25:52.631Z,17.51
2018-07-10T00:26:52.577Z,17.48
2018-07-10T00:27:52.648Z,17.48
2018-07-10T00:28:52.538Z,17.53
2018-07-10T00:29:52.575Z,17.51
2018-07-10T00:30:52.495Z,17.54
2018-07-10T00:31:52.579Z,17.36
2018-07-10T00:32:52.439Z,17.33
2018-07-10T00:33:52.492Z,17.40
2018-07-10T00:34:52.409Z,17.41
2018-07-10T00:35:52.505Z,17.30
2018-07-10T00:36:52.361Z,17.29
2018-07-10T00:37:52.416Z,17.33
2018-07-10T00:38:52.318Z,17.38
2018-07-10T00:39:52.430Z,17.28
2018-07-10T00:40:52.278Z,17.25
2018-07-10T00:41:52.341Z,17.26
2018-07-10T00:42:52.236Z,17.28
2018-07-10T00:43:52.357Z,17.26
2018-07-10T00:44:52.187Z,17.35
2018-07-10T00:45:52.269Z,17.29
2018-07-10T00:46:52.143Z,17.28
2018-07-10T00:47:52.180Z,17.26
2018-07-10T00:48:52.110Z,17.23
2018-07-10T00:49:52.196Z,17.26
2018-07-10T00:50:52.057Z,17.17
2018-07-10T00:51:52.105Z,17.28
2018-07-10T00:52:52.015Z,17.17
2018-07-10T00:53:52.119Z,17.08
2018-07-10T00:54:51.973Z,17.10
2018-07-10T00:55:52.032Z,17.28
2018-07-10T00:56:51.925Z,17.14
2018-07-10T00:57:52.048Z,17.18
2018-07-10T00:58:51.883Z,17.20
2018-07-10T00:59:51.963Z,17.17
2018-07-10T01:00:51.844Z,17.14
2018-07-10T01:01:51.962Z,17.13
2018-07-10T01:02:51.801Z,17.15
2018-07-10T01:03:51.874Z,17.13
2018-07-10T01:04:51.758Z,17.04
2018-07-10T01:05:51.800Z,17.14
2018-07-10T01:06:51.712Z,17.14
2018-07-10T01:07:51.803Z,17.13
2018-07-10T01:08:51.682Z,17.03
2018-07-10T01:09:51.814Z,17.06
2018-07-10T01:10:51.613Z,17.10
2018-07-10T01:11:51.731Z,17.08
2018-07-10T01:12:51.577Z,17.08
2018-07-10T01:13:51.640Z,17.10
2018-07-10T01:14:51.533Z,17.03
2018-07-10T01:15:51.663Z,17.03
2018-07-10T01:16:51.499Z,16.95
2018-07-10T01:17:51.567Z,17.03
2018-07-10T01:18:51.497Z,16.96
2018-07-10T01:19:51.581Z,17.06
2018-07-10T01:20:51.404Z,17.08
2018-07-10T01:21:51.492Z,17.07
2018-07-10T01:22:51.368Z,16.99
2018-07-10T01:23:51.446Z,16.95
2018-07-10T01:24:51.318Z,17.03
2018-07-10T01:25:51.428Z,17.06
2018-07-10T01:26:51.294Z,16.98
2018-07-10T01:27:51.340Z,16.98
2018-07-10T01:28:51.224Z,17.03
2018-07-10T01:29:51.369Z,16.96
2018-07-10T01:30:51.185Z,16.92
2018-07-10T01:31:51.292Z,16.95
2018-07-10T01:32:51.136Z,16.96
2018-07-10T01:33:51.288Z,16.88
2018-07-10T01:34:51.108Z,16.83
2018-07-10T01:35:51.197Z,16.90
2018-07-10T01:36:51.053Z,16.95
2018-07-10T01:37:51.230Z,16.88
2018-07-10T01:38:51.008Z,16.89
2018-07-10T01:39:51.120Z,16.83
2018-07-10T01:40:50.963Z,16.89
2018-07-10T01:41:51.136Z,16.95
2018-07-10T01:42:50.924Z,16.95
2018-07-10T01:43:51.045Z,16.89
2018-07-10T01:44:50.875Z,16.92
2018-07-10T01:45:50.953Z,16.86
2018-07-10T01:46:50.833Z,16.90
2018-07-10T01:47:50.970Z,16.90
2018-07-10T01:48:50.787Z,16.89
2018-07-10T01:49:50.879Z,16.90
2018-07-10T01:50:50.742Z,16.86
2018-07-10T01:51:50.895Z,16.83
2018-07-10T01:52:50.701Z,16.81
2018-07-10T01:53:50.811Z,16.89
2018-07-10T01:54:50.659Z,16.73
2018-07-10T01:55:50.813Z,16.77
2018-07-10T01:56:50.611Z,16.85
2018-07-10T01:57:50.736Z,16.85
2018-07-10T01:58:50.566Z,16.75
2018-07-10T01:59:50.746Z,16.74
2018-07-10T02:00:50.522Z,16.70
2018-07-10T02:01:50.661Z,16.63
2018-07-10T02:02:50.478Z,16.59
2018-07-10T02:03:50.673Z,16.68
2018-07-10T02:04:50.434Z,16.62
2018-07-10T02:05:50.590Z,16.58
2018-07-10T02:06:50.389Z,16.67
2018-07-10T02:07:50.496Z,16.65
2018-07-10T02:08:50.346Z,16.60
2018-07-10T02:09:50.511Z,16.73
2018-07-10T02:10:50.305Z,16.73
2018-07-10T02:11:50.321Z,16.73
2018-07-10T02:12:50.258Z,16.68
2018-07-10T02:13:50.334Z,16.62
2018-07-10T02:14:50.215Z,16.59
2018-07-10T02:15:50.244Z,16.50
2018-07-10T02:16:50.166Z,16.37
2018-07-10T02:17:50.259Z,16.40
2018-07-10T02:18:50.126Z,16.40
2018-07-10T02:19:50.176Z,16.40
2018-07-10T02:20:50.085Z,16.40
2018-07-10T02:21:50.184Z,16.22
2018-07-10T02:22:50.036Z,16.22
2018-07-10T02:23:50.096Z,16.26
2018-07-10T02:24:49.998Z,16.16
2018-07-10T02:25:50.009Z,16.11
2018-07-10T02:26:49.955Z,16.09
2018-07-10T02:27:50.023Z,16.03
2018-07-10T02:28:49.904Z,15.99
2018-07-10T02:29:49.936Z,16.00
2018-07-10T02:30:49.862Z,15.94
2018-07-10T02:31:49.949Z,15.94
2018-07-10T02:32:49.816Z,15.93
2018-07-10T02:33:49.862Z,15.93
2018-07-10T02:34:49.770Z,15.96
2018-07-10T02:36:49.725Z,15.97
2018-07-10T02:37:49.788Z,15.94
2018-07-10T02:38:49.681Z,15.86
2018-07-10T02:39:49.802Z,15.86
2018-07-10T02:40:49.637Z,15.94
2018-07-10T02:41:49.716Z,15.86
2018-07-10T02:42:49.593Z,15.86
2018-07-10T02:43:49.624Z,15.84
2018-07-10T02:44:49.550Z,15.89
2018-07-10T02:45:49.641Z,15.85
2018-07-10T02:46:49.506Z,15.79
2018-07-10T02:47:49.550Z,15.76
2018-07-10T02:48:49.459Z,15.75
2018-07-10T02:49:49.566Z,15.74
2018-07-10T02:50:49.415Z,15.64
2018-07-10T02:51:49.477Z,15.66
2018-07-10T02:52:49.369Z,15.64
2018-07-10T02:53:49.492Z,15.72
2018-07-10T02:54:49.327Z,15.75
2018-07-10T02:55:49.404Z,15.76
2018-07-10T02:56:49.280Z,15.79
2018-07-10T02:57:49.417Z,15.75
2018-07-10T02:58:49.233Z,15.72
2018-07-10T02:59:49.329Z,15.75
2018-07-10T03:00:49.191Z,15.78
2018-07-10T03:01:49.245Z,15.76
2018-07-10T03:02:49.144Z,15.75
2018-07-10T03:03:49.254Z,15.76
2018-07-10T03:04:49.102Z,15.72
2018-07-10T03:05:49.169Z,15.75
2018-07-10T03:06:49.059Z,15.74
2018-07-10T03:07:49.188Z,15.82
2018-07-10T03:08:49.016Z,15.74
2018-07-10T03:09:49.092Z,15.75
2018-07-10T03:10:48.967Z,15.74
2018-07-10T03:11:49.110Z,15.81
2018-07-10T03:12:48.920Z,15.76
2018-07-10T03:13:49.021Z,15.78
2018-07-10T03:14:48.880Z,15.75
2018-07-10T03:15:49.034Z,15.66
2018-07-10T03:16:48.851Z,15.64
2018-07-10T03:17:48.949Z,15.72
2018-07-10T03:18:48.788Z,15.61
2018-07-10T03:19:48.863Z,15.66
2018-07-10T03:20:48.748Z,15.60
2018-07-10T03:21:48.875Z,15.70
2018-07-10T03:22:48.700Z,15.64
2018-07-10T03:23:48.782Z,15.67
2018-07-10T03:24:48.659Z,15.75
2018-07-10T03:25:48.798Z,15.63
2018-07-10T03:26:48.605Z,15.67
2018-07-10T03:27:48.708Z,15.76
2018-07-10T03:28:48.561Z,15.74
2018-07-10T03:29:48.724Z,15.64
2018-07-10T03:30:48.514Z,15.60
2018-07-10T03:31:48.634Z,15.52
2018-07-10T03:32:48.471Z,15.54
2018-07-10T03:33:48.546Z,15.57
2018-07-10T03:34:48.434Z,15.52
2018-07-10T03:35:48.561Z,15.48
2018-07-10T03:36:48.382Z,15.49
2018-07-10T03:37:48.473Z,15.49
2018-07-10T03:38:48.425Z,15.52
2018-07-10T03:39:48.486Z,15.54
2018-07-10T03:40:48.291Z,15.57
2018-07-10T03:41:48.398Z,15.60
2018-07-10T03:42:48.245Z,15.61
2018-07-10T03:43:48.412Z,15.57
2018-07-10T03:44:48.238Z,15.57
2018-07-10T03:45:48.326Z,15.63
2018-07-10T03:46:48.155Z,15.51
2018-07-10T03:47:48.340Z,15.52
2018-07-10T03:48:48.111Z,15.51
2018-07-10T03:49:48.267Z,15.46
2018-07-10T03:50:48.070Z,15.51
2018-07-10T03:51:48.162Z,15.45
2018-07-10T03:52:48.021Z,15.45
2018-07-10T03:53:48.177Z,15.43
2018-07-10T03:54:47.973Z,15.43
2018-07-10T03:55:48.090Z,15.48
2018-07-10T03:56:47.932Z,15.45
2018-07-10T03:57:48.102Z,15.52
2018-07-10T03:58:47.891Z,15.56
2018-07-10T03:59:48.014Z,15.61
2018-07-10T04:00:47.840Z,15.59
2018-07-10T04:01:48.029Z,15.54
2018-07-10T04:02:47.795Z,15.54
2018-07-10T04:03:47.942Z,15.57
2018-07-10T04:04:47.751Z,15.51
2018-07-10T04:05:47.852Z,15.56
2018-07-10T04:06:47.707Z,15.57
2018-07-10T04:07:47.868Z,15.60
2018-07-10T04:08:47.659Z,15.52
2018-07-10T04:09:47.676Z,15.52
2018-07-10T04:10:47.616Z,15.56
2018-07-10T04:11:47.745Z,15.54
2018-07-10T04:12:47.574Z,15.57
2018-07-10T04:13:47.601Z,15.66
2018-07-10T04:14:47.525Z,15.59
2018-07-10T04:15:47.617Z,15.68
2018-07-10T04:16:47.481Z,15.70
2018-07-10T04:17:47.532Z,15.66
2018-07-10T04:18:47.433Z,15.79
2018-07-10T04:19:47.439Z,15.74
2018-07-10T04:20:47.389Z,15.81
2018-07-10T04:21:47.456Z,15.74
2018-07-10T04:22:47.342Z,15.78
2018-07-10T04:23:47.365Z,15.75
2018-07-10T04:24:47.297Z,15.74
2018-07-10T04:25:47.380Z,15.76
2018-07-10T04:26:47.251Z,15.76
2018-07-10T04:27:47.291Z,15.72
2018-07-10T04:28:47.250Z,15.74
2018-07-10T04:29:47.315Z,15.78
2018-07-10T04:30:47.164Z,15.76
2018-07-10T04:31:47.224Z,15.70
2018-07-10T04:32:47.121Z,15.75
2018-07-10T04:33:47.237Z,15.75
2018-07-10T04:34:47.070Z,15.76
2018-07-10T04:35:47.152Z,15.78
2018-07-10T04:36:47.020Z,15.79
2018-07-10T04:37:47.060Z,15.76
2018-07-10T04:38:46.983Z,15.70
2018-07-10T04:39:47.068Z,15.78
2018-07-10T04:40:46.939Z,15.76
2018-07-10T04:41:46.985Z,15.74
2018-07-10T04:42:46.899Z,15.81
2018-07-10T04:43:47.001Z,15.74
2018-07-10T04:44:46.864Z,15.75
2018-07-10T04:45:46.913Z,15.66
2018-07-10T04:46:46.801Z,15.68
2018-07-10T04:47:46.927Z,15.76
2018-07-10T04:48:46.755Z,15.81
2018-07-10T04:49:46.836Z,15.88
2018-07-10T04:50:46.710Z,15.86
2018-07-10T04:51:46.750Z,15.86
2018-07-10T04:52:46.667Z,15.85
2018-07-10T04:53:46.764Z,15.89
2018-07-10T04:54:46.620Z,15.97
2018-07-10T04:55:46.776Z,16.01
2018-07-10T04:56:46.588Z,16.00
2018-07-10T04:57:46.690Z,16.00
2018-07-10T04:58:46.529Z,16.06
2018-07-10T04:59:46.601Z,16.14
2018-07-10T05:00:46.486Z,16.16
2018-07-10T05:01:46.613Z,16.22
2018-07-10T05:02:46.442Z,16.20
2018-07-10T05:03:46.527Z,16.25
2018-07-10T05:04:46.396Z,16.18
2018-07-10T05:05:46.563Z,16.20
2018-07-10T05:06:46.351Z,16.12
2018-07-10T05:07:46.451Z,16.15
2018-07-10T05:08:46.306Z,16.14
2018-07-10T05:09:46.361Z,16.22
2018-07-10T05:10:46.262Z,16.20
2018-07-10T05:11:46.375Z,16.23
2018-07-10T05:12:46.217Z,16.22
2018-07-10T05:13:46.288Z,16.30
2018-07-10T05:14:46.174Z,16.34
2018-07-10T05:15:46.303Z,16.33
2018-07-10T05:16:46.123Z,16.38
2018-07-10T05:17:46.253Z,16.38
2018-07-10T05:18:46.082Z,16.48
2018-07-10T05:19:46.239Z,16.44
2018-07-10T05:20:46.037Z,16.35
2018-07-10T05:21:46.139Z,16.37
2018-07-10T05:22:45.992Z,16.41
2018-07-10T05:23:46.152Z,16.38
2018-07-10T05:24:45.948Z,16.38
2018-07-10T05:25:46.064Z,16.26
2018-07-10T05:26:45.904Z,16.31
2018-07-10T05:27:45.977Z,16.34
2018-07-10T05:28:45.907Z,16.31
2018-07-10T05:29:45.990Z,16.22
2018-07-10T05:30:45.811Z,16.22
2018-07-10T05:31:45.903Z,16.14
2018-07-10T05:32:45.769Z,16.23
2018-07-10T05:33:45.916Z,16.23
2018-07-10T05:34:45.736Z,16.14
2018-07-10T05:35:45.829Z,16.11
2018-07-10T05:36:45.687Z,16.07
2018-07-10T05:37:45.842Z,16.15
2018-07-10T05:38:45.631Z,16.18
2018-07-10T05:39:45.765Z,16.16
2018-07-10T05:40:45.587Z,16.14
2018-07-10T05:41:45.667Z,16.25
2018-07-10T05:42:45.542Z,16.30
2018-07-10T05:43:45.682Z,16.25
2018-07-10T05:44:45.503Z,16.18
2018-07-10T05:45:45.592Z,16.23
2018-07-10T05:46:45.455Z,16.30
2018-07-10T05:47:45.608Z,16.26
2018-07-10T05:48:45.409Z,16.26
2018-07-10T05:49:45.519Z,16.33
2018-07-10T05:50:45.366Z,16.16
2018-07-10T05:51:45.555Z,16.11
2018-07-10T05:52:45.321Z,16.12
2018-07-10T05:53:45.445Z,16.11
2018-07-10T05:54:45.291Z,16.16
2018-07-10T05:55:45.460Z,16.18
2018-07-10T05:56:45.229Z,16.11
2018-07-10T05:57:45.371Z,16.15
2018-07-10T05:58:45.234Z,16.34
2018-07-10T05:59:45.288Z,16.31
2018-07-10T06:00:45.146Z,16.27
2018-07-10T06:01:45.297Z,16.37
2018-07-10T06:02:45.095Z,16.40
2018-07-10T06:03:45.208Z,16.55
2018-07-10T06:04:45.054Z,16.55
2018-07-10T06:05:45.223Z,16.56
2018-07-10T06:06:45.010Z,16.55
2018-07-10T06:07:45.035Z,16.56
2018-07-10T06:08:44.962Z,16.62
2018-07-10T06:09:45.048Z,16.74
2018-07-10T06:10:44.915Z,16.71
2018-07-10T06:11:44.959Z,16.85
2018-07-10T06:12:44.873Z,16.73
2018-07-10T06:13:44.975Z,16.78
2018-07-10T06:14:44.827Z,16.88
2018-07-10T06:15:44.886Z,16.85
2018-07-10T06:16:44.785Z,16.88
2018-07-10T06:17:44.796Z,16.95
2018-07-10T06:18:44.740Z,17.00
2018-07-10T06:19:44.812Z,16.92
2018-07-10T06:20:44.694Z,16.95
2018-07-10T06:21:44.725Z,17.03
2018-07-10T06:22:44.656Z,17.04
2018-07-10T06:23:44.738Z,17.14
2018-07-10T06:24:44.628Z,17.11
2018-07-10T06:25:44.675Z,17.11
2018-07-10T06:26:44.561Z,17.08
2018-07-10T06:27:44.662Z,17.23
2018-07-10T06:28:44.515Z,17.28
2018-07-10T06:29:44.586Z,17.25
2018-07-10T06:30:44.473Z,17.44
2018-07-10T06:31:44.588Z,17.32
2018-07-10T06:32:44.427Z,17.41
2018-07-10T06:33:44.500Z,17.46
2018-07-10T06:34:44.384Z,17.53
2018-07-10T06:35:44.412Z,17.51
2018-07-10T06:36:44.341Z,17.51
2018-07-10T06:37:44.426Z,17.54
2018-07-10T06:38:44.309Z,17.47
2018-07-10T06:39:44.362Z,17.48
2018-07-10T06:40:44.256Z,17.55
2018-07-10T06:41:44.354Z,17.62
2018-07-10T06:42:44.207Z,17.55
2018-07-10T06:43:44.265Z,17.54
2018-07-10T06:44:44.165Z,17.48
2018-07-10T06:45:44.276Z,17.40
2018-07-10T06:46:44.125Z,17.29
2018-07-10T06:47:44.192Z,17.43
2018-07-10T06:48:44.084Z,17.53
2018-07-10T06:49:44.206Z,17.54
2018-07-10T06:50:44.037Z,17.66
2018-07-10T06:51:44.119Z,17.57
2018-07-10T06:52:44.107Z,17.51
2018-07-10T06:53:44.116Z,17.54
2018-07-10T06:54:43.946Z,17.63
2018-07-10T06:55:44.043Z,17.70
2018-07-10T06:56:43.904Z,17.82
2018-07-10T06:57:43.953Z,17.78
2018-07-10T06:58:43.866Z,17.85
2018-07-10T06:59:43.967Z,17.97
2018-07-10T07:00:43.841Z,17.99
2018-07-10T07:01:43.872Z,18.09
2018-07-10T07:02:43.791Z,18.09
2018-07-10T07:03:43.895Z,18.15
2018-07-10T07:04:43.727Z,18.13
2018-07-10T07:05:43.806Z,18.00
2018-07-10T07:06:43.678Z,17.88
2018-07-10T07:07:43.864Z,17.95
2018-07-10T07:08:43.644Z,17.94
2018-07-10T07:09:43.762Z,17.99
2018-07-10T07:10:43.603Z,18.00
2018-07-10T07:11:43.746Z,18.00
2018-07-10T07:12:43.559Z,18.00
2018-07-10T07:13:43.657Z,18.00
2018-07-10T07:14:43.512Z,17.99
2018-07-10T07:15:43.578Z,17.94
2018-07-10T07:16:43.469Z,17.89
2018-07-10T07:17:43.453Z,17.94
2018-07-10T07:18:43.440Z,17.89
2018-07-10T07:19:43.502Z,17.87
2018-07-10T07:20:43.381Z,17.84
2018-07-10T07:21:43.514Z,17.84
2018-07-10T07:22:43.519Z,17.85
2018-07-10T07:23:43.323Z,17.97
2018-07-10T07:24:43.429Z,17.95
2018-07-10T07:25:43.277Z,18.09
2018-07-10T07:26:43.341Z,18.18
2018-07-10T07:27:43.237Z,18.25
2018-07-10T07:28:43.218Z,18.28
2018-07-10T07:29:43.372Z,18.39
2018-07-10T07:30:43.169Z,18.40
2018-07-10T07:31:43.274Z,18.34
2018-07-10T07:32:43.125Z,18.31
2018-07-10T07:33:43.292Z,18.13
2018-07-10T07:34:43.081Z,18.09
2018-07-10T07:35:43.198Z,17.99
2018-07-10T07:36:43.038Z,17.94
2018-07-10T07:37:43.206Z,17.82
2018-07-10T07:38:42.998Z,17.79
2018-07-10T07:39:43.125Z,17.92
2018-07-10T07:40:42.961Z,17.84
2018-07-10T07:41:43.038Z,17.89
2018-07-10T07:42:42.911Z,17.92
2018-07-10T07:43:43.062Z,17.91
2018-07-10T07:44:42.866Z,17.99
2018-07-10T07:45:42.966Z,18.10
2018-07-10T07:46:42.827Z,18.17
2018-07-10T07:47:42.977Z,18.15
2018-07-10T07:48:42.783Z,18.07
2018-07-10T07:49:42.761Z,18.09
2018-07-10T07:50:42.895Z,18.15
2018-07-10T07:51:42.719Z,18.12
2018-07-10T07:52:42.808Z,18.28
2018-07-10T07:53:42.673Z,18.09
2018-07-10T07:54:42.652Z,18.17
2018-07-10T07:55:42.830Z,18.15
2018-07-10T07:56:42.616Z,18.09
2018-07-10T07:57:42.741Z,18.07
2018-07-10T07:58:42.568Z,18.12
2018-07-10T07:59:42.547Z,18.15
2018-07-10T08:00:42.531Z,18.12
2018-07-10T08:01:42.565Z,18.19
2018-07-10T08:02:42.487Z,18.33
2018-07-10T08:03:42.477Z,18.52
2018-07-10T08:04:42.439Z,18.47
2018-07-10T08:05:42.434Z,18.59
2018-07-10T08:06:42.497Z,18.62
2018-07-10T08:07:42.375Z,18.70
2018-07-10T08:08:42.410Z,18.64
2018-07-10T08:09:42.352Z,18.62
2018-07-10T08:10:42.425Z,18.55
2018-07-10T08:11:42.293Z,18.49
2018-07-10T08:12:42.274Z,18.65
2018-07-10T08:13:42.246Z,18.67
2018-07-10T08:14:42.248Z,18.79
2018-07-10T08:15:42.209Z,18.74
2018-07-10T08:16:42.269Z,18.62
2018-07-10T08:17:42.270Z,18.68
2018-07-10T08:18:42.141Z,18.74
2018-07-10T08:19:42.183Z,18.68
2018-07-10T08:20:42.100Z,18.68
2018-07-10T08:21:42.095Z,18.70
2018-07-10T08:22:42.059Z,18.72
2018-07-10T08:23:42.107Z,18.82
2018-07-10T08:24:42.018Z,18.79
2018-07-10T08:25:42.021Z,18.77
2018-07-10T08:26:41.976Z,18.79
2018-07-10T08:27:42.039Z,18.67
2018-07-10T08:28:41.939Z,18.58
2018-07-10T08:29:41.949Z,18.43
2018-07-10T08:30:41.909Z,18.44
2018-07-10T08:31:41.959Z,18.33
2018-07-10T08:32:41.849Z,18.33
2018-07-10T08:33:41.942Z,18.19
2018-07-10T08:34:41.806Z,18.17
2018-07-10T08:35:41.887Z,18.19
2018-07-10T08:36:41.764Z,18.21
2018-07-10T08:37:41.799Z,18.24
2018-07-10T08:38:41.724Z,18.37
2018-07-10T08:39:41.814Z,18.44
2018-07-10T08:40:41.682Z,18.49
2018-07-10T08:41:41.726Z,18.46
2018-07-10T08:42:41.642Z,18.43
2018-07-10T08:43:41.638Z,18.54
2018-07-10T08:44:41.592Z,18.43
2018-07-10T08:45:41.654Z,18.40
2018-07-10T08:46:41.555Z,18.43
2018-07-10T08:47:41.573Z,18.54
2018-07-10T08:48:41.514Z,18.28
2018-07-10T08:49:41.575Z,18.39
2018-07-10T08:50:41.518Z,18.33
2018-07-10T08:51:41.489Z,18.46
2018-07-10T08:52:41.427Z,18.50
2018-07-10T08:53:41.501Z,18.47
2018-07-10T08:54:41.391Z,18.33
2018-07-10T08:55:41.414Z,18.25
2018-07-10T08:56:41.342Z,18.21
2018-07-10T08:57:41.429Z,18.22
2018-07-10T08:58:41.298Z,18.19
2018-07-10T08:59:41.388Z,18.13
2018-07-10T09:00:41.257Z,18.15
2018-07-10T09:01:41.255Z,18.17
2018-07-10T09:02:41.224Z,18.13
2018-07-10T09:03:41.263Z,17.91
2018-07-10T09:04:41.171Z,17.94
2018-07-10T09:05:41.178Z,18.00
2018-07-10T09:06:41.129Z,17.92
2018-07-10T09:07:41.194Z,17.97
2018-07-10T09:08:41.093Z,18.02
2018-07-10T09:09:41.102Z,18.04
2018-07-10T09:10:41.046Z,18.19
2018-07-10T09:11:41.116Z,18.13
2018-07-10T09:12:41.003Z,18.06
2018-07-10T09:13:41.027Z,18.19
2018-07-10T09:14:40.960Z,18.22
2018-07-10T09:15:41.043Z,18.19
2018-07-10T09:16:40.921Z,18.15
2018-07-10T09:17:40.955Z,18.07
2018-07-10T09:18:40.875Z,18.00
2018-07-10T09:19:40.866Z,17.97
2018-07-10T09:20:40.832Z,18.00
2018-07-10T09:21:40.885Z,17.97
2018-07-10T09:22:40.794Z,18.13
2018-07-10T09:23:40.791Z,18.15
2018-07-10T09:24:40.745Z,18.22
2018-07-10T09:25:40.806Z,18.25
2018-07-10T09:26:40.706Z,18.31
2018-07-10T09:27:40.717Z,18.29
2018-07-10T09:28:40.660Z,18.28
2018-07-10T09:29:40.731Z,18.22
2018-07-10T09:30:40.618Z,18.27
2018-07-10T09:31:40.650Z,18.17
2018-07-10T09:32:40.574Z,18.22
2018-07-10T09:33:40.673Z,18.18
2018-07-10T09:34:40.532Z,18.27
2018-07-10T09:35:40.579Z,18.28
2018-07-10T09:36:40.490Z,18.36
2018-07-10T09:37:40.481Z,18.31
2018-07-10T09:38:40.449Z,18.31
2018-07-10T09:39:40.500Z,18.39
2018-07-10T09:40:40.405Z,18.46
2018-07-10T09:41:40.411Z,18.43
2018-07-10T09:42:40.358Z,18.37
2018-07-10T09:43:40.428Z,18.28
2018-07-10T09:44:40.320Z,18.28
2018-07-10T09:45:40.336Z,18.22
2018-07-10T09:46:40.274Z,18.19
2018-07-10T09:47:40.348Z,18.09
2018-07-10T09:48:40.235Z,18.00
2018-07-10T09:49:40.262Z,18.02
2018-07-10T09:50:40.193Z,18.02
2018-07-10T09:51:40.277Z,18.09
2018-07-10T09:52:40.151Z,18.03
2018-07-10T09:53:40.187Z,18.03
2018-07-10T09:54:40.145Z,17.87
2018-07-10T09:55:40.103Z,17.92
2018-07-10T09:56:40.064Z,17.92
2018-07-10T09:57:40.113Z,18.02
2018-07-10T09:58:40.025Z,17.95
2018-07-10T09:59:40.024Z,17.99
2018-07-10T10:00:39.982Z,17.94
2018-07-10T10:01:40.039Z,17.91
2018-07-10T10:02:40.052Z,18.00
2018-07-10T10:03:39.915Z,18.00
2018-07-10T10:04:39.950Z,18.09
2018-07-10T10:05:39.876Z,17.95
2018-07-10T10:06:39.869Z,17.99
2018-07-10T10:07:39.827Z,17.92
2018-07-10T10:08:39.882Z,17.94
2018-07-10T10:09:39.785Z,17.92
2018-07-10T10:10:39.793Z,17.85
2018-07-10T10:11:39.744Z,17.99
2018-07-10T10:12:39.808Z,17.97
2018-07-10T10:13:39.700Z,18.03
2018-07-10T10:14:39.720Z,18.09
2018-07-10T10:15:39.662Z,18.18
2018-07-10T10:16:39.794Z,18.33
2018-07-10T10:17:39.617Z,18.44
2018-07-10T10:18:39.647Z,18.47
2018-07-10T10:19:39.568Z,18.47
2018-07-10T10:20:39.660Z,18.61
2018-07-10T10:21:39.526Z,18.67
2018-07-10T10:22:39.572Z,18.67
2018-07-10T10:23:39.482Z,18.72
2018-07-10T10:24:39.484Z,18.70
2018-07-10T10:25:39.497Z,18.79
2018-07-10T10:26:39.498Z,18.74
2018-07-10T10:27:39.397Z,18.67
2018-07-10T10:28:39.410Z,18.70
2018-07-10T10:29:39.359Z,18.67
2018-07-10T10:30:39.427Z,18.54
2018-07-10T10:31:39.315Z,18.61
2018-07-10T10:32:39.335Z,18.61
2018-07-10T10:33:39.269Z,18.49
2018-07-10T10:34:39.350Z,18.47
2018-07-10T10:35:39.258Z,18.46
2018-07-10T10:36:39.256Z,18.29
2018-07-10T10:37:39.184Z,18.28
2018-07-10T10:38:39.280Z,18.25
2018-07-10T10:39:39.141Z,18.27
2018-07-10T10:40:39.189Z,18.24
2018-07-10T10:41:39.099Z,18.31
2018-07-10T10:42:39.103Z,18.39
2018-07-10T10:43:39.055Z,18.49
2018-07-10T10:44:39.132Z,18.44
2018-07-10T10:45:39.015Z,18.37
2018-07-10T10:46:39.028Z,18.47
2018-07-10T10:47:38.972Z,18.42
2018-07-10T10:48:39.041Z,18.36
2018-07-10T10:49:38.929Z,18.43
2018-07-10T10:50:38.954Z,18.43
2018-07-10T10:51:38.885Z,18.49
2018-07-10T10:52:38.971Z,18.49
2018-07-10T10:53:38.843Z,18.49
2018-07-10T10:54:38.879Z,18.54
2018-07-10T10:55:38.799Z,18.55
2018-07-10T10:56:38.896Z,18.49
2018-07-10T10:57:38.755Z,18.54
2018-07-10T10:58:38.736Z,18.59
2018-07-10T10:59:38.713Z,18.59
2018-07-10T11:00:38.822Z,18.52
2018-07-10T11:01:38.672Z,18.49
2018-07-10T11:02:38.794Z,18.43
2018-07-10T11:03:38.739Z,18.47
2018-07-10T11:04:38.607Z,18.46
2018-07-10T11:05:38.658Z,18.47
2018-07-10T11:06:38.563Z,18.68
2018-07-10T11:07:38.569Z,18.70
2018-07-10T11:08:38.605Z,18.72
2018-07-10T11:09:38.677Z,18.84
2018-07-10T11:10:38.578Z,18.90
2018-07-10T11:11:38.580Z,19.01
2018-07-10T11:12:38.529Z,19.05
2018-07-10T11:13:38.593Z,19.21
2018-07-10T11:14:38.490Z,19.25
2018-07-10T11:15:38.508Z,19.38
2018-07-10T11:16:38.430Z,19.28
2018-07-10T11:17:38.523Z,19.20
2018-07-10T11:18:38.378Z,19.08
2018-07-10T11:19:38.495Z,19.05
2018-07-10T11:20:38.328Z,18.98
2018-07-10T11:21:38.350Z,18.90
2018-07-10T11:22:38.293Z,18.91
2018-07-10T11:23:38.420Z,18.86
2018-07-10T11:24:38.183Z,18.90
2018-07-10T11:25:38.179Z,18.87
2018-07-10T11:26:38.140Z,18.94
2018-07-10T11:27:38.293Z,18.76
2018-07-10T11:28:38.098Z,18.70
2018-07-10T11:29:38.202Z,18.72
2018-07-10T11:30:38.057Z,18.73
2018-07-10T11:31:38.226Z,18.65
2018-07-10T11:32:38.015Z,18.80
2018-07-10T11:33:38.134Z,18.59
2018-07-10T11:34:37.975Z,18.58
2018-07-10T11:35:38.146Z,18.58
2018-07-10T11:36:37.937Z,18.70
2018-07-10T11:37:38.059Z,18.59
2018-07-10T11:38:37.886Z,18.52
2018-07-10T11:39:37.969Z,18.47
2018-07-10T11:40:37.965Z,18.49
2018-07-10T11:41:37.973Z,18.52
2018-07-10T11:42:37.908Z,18.46
2018-07-10T11:43:37.988Z,18.46
2018-07-10T11:44:37.760Z,18.40
2018-07-10T11:45:37.982Z,18.29
2018-07-10T11:46:37.808Z,18.21
2018-07-10T11:47:37.827Z,17.95
2018-07-10T11:48:37.804Z,17.92
2018-07-10T11:49:37.825Z,17.88
2018-07-10T11:50:37.725Z,17.85
2018-07-10T11:51:37.760Z,17.87
2018-07-10T11:52:37.671Z,17.87
2018-07-10T11:53:37.751Z,17.71
2018-07-10T11:54:37.611Z,17.57
2018-07-10T11:55:37.560Z,17.53
2018-07-10T11:56:37.507Z,17.48
2018-07-10T11:57:37.678Z,17.50
2018-07-10T11:58:37.461Z,17.38
2018-07-10T11:59:37.598Z,17.35
2018-07-10T12:00:37.418Z,17.33
2018-07-10T12:01:37.613Z,17.33
2018-07-10T12:02:37.373Z,17.41
2018-07-10T12:03:37.526Z,17.30
2018-07-10T12:04:37.333Z,17.26
2018-07-10T12:05:37.436Z,17.36
2018-07-10T12:06:37.291Z,17.40
2018-07-10T12:07:37.350Z,17.10
2018-07-10T12:08:37.251Z,17.10
2018-07-10T12:09:37.260Z,17.04
2018-07-10T12:10:37.205Z,17.15
2018-07-10T12:11:37.277Z,17.13
2018-07-10T12:12:37.197Z,17.07
2018-07-10T12:13:37.187Z,17.08
2018-07-10T12:14:37.114Z,17.18
2018-07-10T12:15:37.207Z,17.17
2018-07-10T12:16:37.072Z,17.20
2018-07-10T12:17:37.112Z,17.10
2018-07-10T12:18:37.025Z,17.18
2018-07-10T12:19:37.125Z,17.23
2018-07-10T12:20:36.983Z,17.20
2018-07-10T12:21:37.040Z,17.23
2018-07-10T12:22:36.937Z,17.30
2018-07-10T12:23:37.053Z,17.35
2018-07-10T12:24:36.897Z,17.36
2018-07-10T12:25:36.970Z,17.48
2018-07-10T12:26:36.948Z,17.53
2018-07-10T12:27:36.876Z,17.51
2018-07-10T12:28:36.808Z,17.63
2018-07-10T12:29:36.890Z,17.66
2018-07-10T12:30:36.763Z,17.73
2018-07-10T12:31:36.801Z,17.78
2018-07-10T12:32:36.728Z,17.79
2018-07-10T12:33:36.817Z,17.74
2018-07-10T12:34:36.682Z,17.70
2018-07-10T12:35:36.725Z,17.78
2018-07-10T12:36:36.628Z,17.84
2018-07-10T12:37:36.706Z,17.76
2018-07-10T12:38:36.594Z,17.82
2018-07-10T12:39:36.617Z,17.97
2018-07-10T12:40:36.547Z,18.07
2018-07-10T12:41:36.647Z,18.31
2018-07-10T12:42:36.502Z,18.64
2018-07-10T12:43:36.540Z,18.83
2018-07-10T12:44:36.466Z,18.99
2018-07-10T12:45:36.452Z,19.10
2018-07-10T12:46:36.417Z,19.05
2018-07-10T12:47:36.461Z,19.28
2018-07-10T12:48:36.373Z,19.38
2018-07-10T12:49:36.373Z,19.50
2018-07-10T12:50:36.328Z,19.38
2018-07-10T12:51:36.385Z,19.35
2018-07-10T12:52:36.287Z,19.20
2018-07-10T12:53:36.296Z,19.18